Time;durP1;ratioP1;P1;durP2;ratioP2;P2;SDS_P1;SDS_P2;PMS_P1;PMS_P2;Temp;Humidity;BMP_temperature;BMP_pressure;BME280_temperature;BME280_humidity;BME280_pressure;Samples;Min_cycle;Max_cycle;Signal;HPM_P1;HPM_P2
2022/07/16 00:02:13;;;;;;;1.40;1.30;;;14.20;97.30;;;;;;5072332;28;20337;-83
2022/07/16 00:04:39;;;;;;;1.43;1.33;;;14.10;97.30;;;;;;5053998;28;20442;-83
2022/07/16 00:07:04;;;;;;;1.63;1.53;;;14.10;97.30;;;;;;5050300;28;20696;-82
2022/07/16 00:09:30;;;;;;;1.10;1.00;;;14.10;97.30;;;;;;5053959;28;20357;-82
2022/07/16 00:11:56;;;;;;;1.50;1.47;;;14.00;97.30;;;;;;5070437;28;20179;-82
2022/07/16 00:14:21;;;;;;;1.97;1.20;;;14.00;97.30;;;;;;5070447;28;20171;-82
2022/07/16 00:16:47;;;;;;;1.77;1.50;;;14.00;97.30;;;;;;5069958;28;20171;-83
2022/07/16 00:19:19;;;;;;;1.20;1.10;;;14.00;97.30;;;;;;5070425;28;20688;-83
2022/07/16 00:21:46;;;;;;;1.07;1.00;;;14.00;97.30;;;;;;5070157;28;20522;-82
2022/07/16 00:24:12;;;;;;;1.83;1.77;;;14.00;97.30;;;;;;5070785;28;20410;-82
2022/07/16 00:26:38;;;;;;;1.00;1.00;;;14.00;97.30;;;;;;5070671;28;20433;-82
2022/07/16 00:29:03;;;;;;;5.33;1.73;;;14.10;97.30;;;;;;5069854;28;20735;-82
2022/07/16 00:31:29;;;;;;;1.00;0.90;;;14.00;97.30;;;;;;5070234;28;20167;-82
2022/07/16 00:33:55;;;;;;;1.17;1.10;;;14.00;97.30;;;;;;5070299;28;20596;-83
2022/07/16 00:36:20;;;;;;;2.17;1.77;;;14.10;97.30;;;;;;5069783;28;20198;-82
2022/07/16 00:38:46;;;;;;;2.40;1.60;;;14.10;97.30;;;;;;5069504;28;20199;-83
2022/07/16 00:41:16;;;;;;;1.20;1.17;;;14.10;97.30;;;;;;5069620;28;20185;-83
2022/07/16 00:43:50;;;;;;;1.20;1.10;;;14.10;97.30;;;;;;5070132;28;20244;-83
2022/07/16 00:46:16;;;;;;;1.10;1.00;;;14.10;97.30;;;;;;5070073;28;20460;-82
2022/07/16 00:48:43;;;;;;;1.43;1.33;;;14.10;97.30;;;;;;5056917;28;20466;-82
2022/07/16 00:51:08;;;;;;;1.50;1.43;;;14.10;97.30;;;;;;5055676;28;20567;-83
2022/07/16 00:53:35;;;;;;;11.17;1.20;;;14.20;97.30;;;;;;5069948;28;20503;-82
2022/07/16 00:56:01;;;;;;;2.47;2.10;;;14.20;97.30;;;;;;5049673;28;20446;-83
2022/07/16 00:58:27;;;;;;;2.33;1.47;;;14.20;97.30;;;;;;5066324;28;20434;-83
2022/07/16 01:00:53;;;;;;;1.50;1.40;;;14.20;97.30;;;;;;5069653;28;20425;-82
2022/07/16 01:03:18;;;;;;;1.40;1.30;;;14.20;97.30;;;;;;5067885;28;20171;-82
2022/07/16 01:05:45;;;;;;;1.90;1.50;;;14.20;97.30;;;;;;5049849;28;20183;-82
2022/07/16 01:08:11;;;;;;;1.40;1.27;;;14.20;97.30;;;;;;5064536;28;20199;-83
2022/07/16 01:10:39;;;;;;;2.73;1.70;;;14.20;97.30;;;;;;5062092;28;20457;-82
2022/07/16 01:13:07;;;;;;;1.07;0.97;;;14.20;97.30;;;;;;5049614;28;20847;-82
2022/07/16 01:15:33;;;;;;;2.37;2.17;;;14.20;97.30;;;;;;5049341;28;20422;-80
2022/07/16 01:17:58;;;;;;;2.30;1.73;;;14.20;97.30;;;;;;5049566;28;20480;-82
2022/07/16 01:20:24;;;;;;;1.77;1.20;;;14.20;97.30;;;;;;5062109;28;20176;-83
2022/07/16 01:22:52;;;;;;;1.10;1.10;;;14.20;97.30;;;;;;5069481;28;20179;-82
2022/07/16 01:25:18;;;;;;;1.47;1.40;;;14.20;97.30;;;;;;5071310;28;20171;-83
2022/07/16 01:27:43;;;;;;;1.20;1.10;;;14.20;97.30;;;;;;5070423;28;20805;-82
2022/07/16 01:30:10;;;;;;;2.77;1.80;;;14.20;97.30;;;;;;5069207;28;20223;-82
2022/07/16 01:32:37;;;;;;;6.00;1.33;;;14.20;97.30;;;;;;5069477;28;20202;-82
2022/07/16 01:35:04;;;;;;;1.50;1.40;;;14.20;97.30;;;;;;5069649;28;20413;-82
2022/07/16 01:37:29;;;;;;;1.40;1.00;;;14.20;97.30;;;;;;5069093;28;20441;-83
2022/07/16 01:39:55;;;;;;;1.87;1.10;;;14.20;97.30;;;;;;5069490;28;20479;-82
2022/07/16 01:42:20;;;;;;;1.00;0.90;;;14.10;97.30;;;;;;5068917;28;20198;-82
2022/07/16 01:44:46;;;;;;;3.53;1.50;;;14.20;97.30;;;;;;5068969;28;20179;-81
2022/07/16 01:47:13;;;;;;;1.33;1.23;;;14.20;97.30;;;;;;5069203;28;20190;-83
2022/07/16 01:49:39;;;;;;;1.10;1.10;;;14.20;97.30;;;;;;5069101;28;20203;-82
2022/07/16 01:52:11;;;;;;;1.30;1.27;;;14.20;97.30;;;;;;5063523;28;20426;-82
2022/07/16 01:54:45;;;;;;;2.70;1.27;;;14.20;97.30;;;;;;5050332;28;20463;-82
2022/07/16 01:57:11;;;;;;;0.90;0.90;;;14.20;97.30;;;;;;5049034;28;20441;-83
2022/07/16 01:59:38;;;;;;;1.37;1.27;;;14.20;97.30;;;;;;5049345;28;20430;-82
2022/07/16 02:02:04;;;;;;;1.13;1.03;;;14.20;97.30;;;;;;5049250;28;20410;-82
2022/07/16 02:04:30;;;;;;;1.43;1.33;;;14.20;97.30;;;;;;5048849;28;21063;-83
2022/07/16 02:06:55;;;;;;;1.30;1.20;;;14.20;97.30;;;;;;5059213;28;20528;-82
2022/07/16 02:09:21;;;;;;;1.33;1.23;;;14.20;97.30;;;;;;5068664;28;20214;-83
2022/07/16 02:11:47;;;;;;;1.13;1.07;;;14.20;97.30;;;;;;5069039;28;20184;-83
2022/07/16 02:14:12;;;;;;;12.80;1.47;;;14.20;97.30;;;;;;5052182;28;20188;-82
2022/07/16 02:16:38;;;;;;;1.37;1.27;;;14.20;97.30;;;;;;5050012;28;20283;-83
2022/07/16 02:19:03;;;;;;;2.23;1.50;;;14.20;97.30;;;;;;5048809;28;20191;-82
2022/07/16 02:21:31;;;;;;;1.97;0.90;;;14.20;97.30;;;;;;5058668;28;20175;-83
2022/07/16 02:23:56;;;;;;;2.80;1.47;;;14.20;97.30;;;;;;5052063;28;20184;-83
2022/07/16 02:26:22;;;;;;;3.13;2.70;;;14.20;97.30;;;;;;5049157;28;21001;-83
2022/07/16 02:28:47;;;;;;;1.00;0.90;;;14.10;97.30;;;;;;5048421;28;20235;-83
2022/07/16 02:31:13;;;;;;;1.10;1.00;;;14.10;97.30;;;;;;5048415;28;20265;-83
2022/07/16 02:33:39;;;;;;;1.37;1.27;;;14.10;97.30;;;;;;5051752;28;20188;-83
2022/07/16 02:36:05;;;;;;;4.20;1.00;;;14.10;97.30;;;;;;5052647;28;20545;-82
2022/07/16 02:38:30;;;;;;;1.07;1.03;;;14.10;97.30;;;;;;5053158;28;20564;-83
2022/07/16 02:40:56;;;;;;;3.23;1.43;;;14.10;97.30;;;;;;5052699;28;20422;-82
2022/07/16 02:43:22;;;;;;;1.00;0.90;;;14.10;97.30;;;;;;5052669;28;20214;-82
2022/07/16 02:45:47;;;;;;;0.90;0.90;;;14.10;97.30;;;;;;5052735;28;20381;-83
2022/07/16 02:48:13;;;;;;;1.00;0.90;;;14.10;97.30;;;;;;5052698;28;20195;-83
2022/07/16 02:50:39;;;;;;;2.20;1.63;;;14.10;97.30;;;;;;5065235;28;20207;-83
2022/07/16 02:53:05;;;;;;;1.73;1.33;;;14.10;97.30;;;;;;5051963;28;20220;-82
2022/07/16 02:55:31;;;;;;;3.67;2.10;;;14.10;97.30;;;;;;5072012;28;20413;-83
2022/07/16 02:57:57;;;;;;;4.00;1.90;;;14.10;97.30;;;;;;5071680;28;20490;-82
2022/07/16 03:00:22;;;;;;;1.40;1.30;;;14.20;97.30;;;;;;5071726;28;20222;-83
2022/07/16 03:02:48;;;;;;;4.70;1.33;;;14.20;97.30;;;;;;5073230;28;20653;-83
2022/07/16 03:05:14;;;;;;;1.20;1.10;;;14.20;97.30;;;;;;5072039;28;20500;-83
2022/07/16 03:07:41;;;;;;;6.80;2.40;;;14.20;97.30;;;;;;5071882;28;20472;-83
2022/07/16 03:10:08;;;;;;;1.30;1.30;;;14.20;97.30;;;;;;5071620;28;20492;-83
2022/07/16 03:12:34;;;;;;;1.87;1.20;;;14.20;97.30;;;;;;5071652;28;20410;-81
2022/07/16 03:15:03;;;;;;;1.00;0.90;;;14.30;97.30;;;;;;5072919;28;20913;-83
2022/07/16 03:17:29;;;;;;;1.40;1.30;;;14.30;97.30;;;;;;5070590;28;20187;-83
2022/07/16 03:19:54;;;;;;;1.03;0.97;;;14.30;97.30;;;;;;5072204;28;20930;-82
2022/07/16 03:22:20;;;;;;;3.60;1.13;;;14.40;97.30;;;;;;5072870;28;20804;-83
2022/07/16 03:24:46;;;;;;;2.10;1.30;;;14.40;97.30;;;;;;5072825;28;20191;-82
2022/07/16 03:27:12;;;;;;;1.40;1.30;;;14.40;97.30;;;;;;5073117;28;20219;-82
2022/07/16 03:29:38;;;;;;;1.17;1.10;;;14.50;97.30;;;;;;5072862;28;20234;-83
2022/07/16 03:32:03;;;;;;;5.40;2.73;;;14.50;97.30;;;;;;5055467;28;20453;-82
2022/07/16 03:34:29;;;;;;;1.10;1.00;;;14.50;97.30;;;;;;5056632;28;20779;-83
2022/07/16 03:36:55;;;;;;;1.00;1.00;;;14.50;97.30;;;;;;5072180;28;20529;-83
2022/07/16 03:39:20;;;;;;;1.30;1.20;;;14.50;97.30;;;;;;5061315;28;20231;-82
2022/07/16 03:41:46;;;;;;;1.00;0.90;;;14.60;97.30;;;;;;5056297;28;20240;-82
2022/07/16 03:44:12;;;;;;;1.77;1.33;;;14.60;97.30;;;;;;5072320;28;20222;-83
2022/07/16 03:46:38;;;;;;;0.93;0.87;;;14.60;97.30;;;;;;5072182;28;20179;-83
2022/07/16 03:49:05;;;;;;;0.80;0.80;;;14.70;97.20;;;;;;5073183;28;20487;-83
2022/07/16 03:51:31;;;;;;;0.83;0.80;;;14.70;97.00;;;;;;5072215;28;20449;-82
2022/07/16 03:53:57;;;;;;;1.97;1.30;;;14.70;96.90;;;;;;5071714;28;20429;-83
2022/07/16 03:56:24;;;;;;;1.10;1.10;;;14.70;96.70;;;;;;5073338;28;20703;-82
2022/07/16 03:58:50;;;;;;;1.37;1.07;;;14.80;96.50;;;;;;5061544;28;20203;-82
2022/07/16 04:01:15;;;;;;;1.83;1.00;;;14.80;96.30;;;;;;5051771;28;20480;-83
2022/07/16 04:03:41;;;;;;;1.10;1.00;;;14.80;96.20;;;;;;5052322;28;20191;-82
2022/07/16 04:06:06;;;;;;;1.10;1.07;;;14.80;95.90;;;;;;5051660;28;20187;-82
2022/07/16 04:08:32;;;;;;;2.13;1.90;;;14.80;95.80;;;;;;5051486;28;20210;-83
2022/07/16 04:10:58;;;;;;;1.27;1.17;;;14.80;95.80;;;;;;5068058;28;20204;-82
2022/07/16 04:13:23;;;;;;;3.53;1.23;;;14.90;95.80;;;;;;5051407;28;20178;-83
2022/07/16 04:15:49;;;;;;;8.77;1.73;;;14.80;95.50;;;;;;5051868;28;20196;-83
2022/07/16 04:18:15;;;;;;;2.30;1.23;;;14.90;95.50;;;;;;5051563;28;20195;-83
2022/07/16 04:20:41;;;;;;;1.10;1.00;;;14.90;95.40;;;;;;5051493;28;20178;-83
2022/07/16 04:23:06;;;;;;;1.00;0.90;;;14.90;95.40;;;;;;5052225;28;20430;-83
2022/07/16 04:25:32;;;;;;;1.20;1.20;;;14.90;95.30;;;;;;5052087;28;20182;-83
2022/07/16 04:27:58;;;;;;;1.47;1.37;;;14.90;95.30;;;;;;5051658;28;20268;-83
2022/07/16 04:30:24;;;;;;;2.30;1.30;;;15.00;95.10;;;;;;5050848;28;20465;-82
2022/07/16 04:32:49;;;;;;;1.13;1.03;;;15.00;95.20;;;;;;5051309;28;20271;-82
2022/07/16 04:35:15;;;;;;;1.00;0.90;;;15.00;94.90;;;;;;5051069;28;20172;-82
2022/07/16 04:37:41;;;;;;;1.13;1.03;;;15.00;94.70;;;;;;5051032;28;20200;-83
2022/07/16 04:40:09;;;;;;;1.27;1.20;;;15.00;94.90;;;;;;5051303;28;20437;-82
2022/07/16 04:42:39;;;;;;;1.13;1.03;;;15.00;95.40;;;;;;5051440;28;20184;-83
2022/07/16 04:45:05;;;;;;;2.60;1.20;;;15.00;95.90;;;;;;5051557;28;20418;-82
2022/07/16 04:47:31;;;;;;;1.00;0.90;;;15.00;95.90;;;;;;5049996;28;20448;-82
2022/07/16 04:49:57;;;;;;;0.90;0.90;;;15.00;95.80;;;;;;5049032;28;20536;-82
2022/07/16 04:52:22;;;;;;;1.00;0.90;;;15.00;95.70;;;;;;5050074;28;20179;-83
2022/07/16 04:54:48;;;;;;;1.00;0.90;;;15.00;95.90;;;;;;5050793;28;20367;-82
2022/07/16 04:57:13;;;;;;;1.20;1.10;;;15.00;95.30;;;;;;5049572;28;20633;-82
2022/07/16 04:59:39;;;;;;;1.67;1.63;;;14.90;95.60;;;;;;5049919;28;20580;-83
2022/07/16 05:04:48;;;;;;;1.40;1.40;;;14.90;96.70;;;;;;5064903;28;20198;-84
2022/07/16 05:07:14;;;;;;;1.10;1.00;;;14.80;96.80;;;;;;5062893;28;20426;-83
2022/07/16 05:09:40;;;;;;;1.40;1.30;;;14.80;97.30;;;;;;5049500;28;20203;-82
2022/07/16 05:12:05;;;;;;;2.10;1.30;;;14.70;97.30;;;;;;5049380;28;20176;-82
2022/07/16 05:14:31;;;;;;;1.30;1.20;;;14.70;97.30;;;;;;5049837;28;20430;-83
2022/07/16 05:16:57;;;;;;;2.37;1.60;;;14.60;97.30;;;;;;5049662;28;20271;-82
2022/07/16 05:19:23;;;;;;;1.27;1.17;;;14.60;97.30;;;;;;5050012;28;20204;-83
2022/07/16 05:21:49;;;;;;;1.33;1.33;;;14.60;97.30;;;;;;5049678;28;20183;-83
2022/07/16 05:24:15;;;;;;;1.80;1.70;;;14.60;97.30;;;;;;5049368;28;20924;-83
2022/07/16 05:26:40;;;;;;;2.00;1.60;;;14.60;97.30;;;;;;5062619;28;20179;-83
2022/07/16 05:29:06;;;;;;;1.57;1.47;;;14.60;97.30;;;;;;5069027;28;20243;-82
2022/07/16 05:31:32;;;;;;;14.87;3.10;;;14.60;97.30;;;;;;5056055;28;20238;-82
2022/07/16 05:33:57;;;;;;;6.33;1.43;;;14.60;97.30;;;;;;5050549;28;20176;-83
2022/07/16 05:36:23;;;;;;;1.47;1.37;;;14.60;97.30;;;;;;5060529;28;20179;-83
2022/07/16 05:38:49;;;;;;;2.10;1.00;;;14.60;97.30;;;;;;5070883;28;20195;-83
2022/07/16 05:41:14;;;;;;;1.83;1.30;;;14.60;97.30;;;;;;5072785;28;20225;-82
2022/07/16 05:43:40;;;;;;;1.03;0.90;;;14.60;97.30;;;;;;5069642;28;20171;-81
2022/07/16 05:46:05;;;;;;;1.10;1.00;;;14.60;97.30;;;;;;5067182;28;20239;-82
2022/07/16 05:48:31;;;;;;;1.60;1.50;;;14.60;97.30;;;;;;5059598;28;20254;-82
2022/07/16 05:50:56;;;;;;;2.93;1.57;;;14.70;97.30;;;;;;5063417;28;20230;-82
2022/07/16 05:53:22;;;;;;;1.30;1.20;;;14.70;97.30;;;;;;5060009;28;20210;-83
2022/07/16 05:55:48;;;;;;;1.47;1.40;;;14.70;97.30;;;;;;5048665;28;20191;-83
2022/07/16 05:58:13;;;;;;;9.30;2.50;;;14.70;97.30;;;;;;5049179;28;20192;-83
2022/07/16 06:00:39;;;;;;;1.57;1.50;;;14.80;97.30;;;;;;5049160;28;20188;-83
2022/07/16 06:03:05;;;;;;;1.07;0.97;;;14.80;97.30;;;;;;5049228;28;20179;-82
2022/07/16 06:05:30;;;;;;;1.60;1.13;;;14.80;97.30;;;;;;5049631;28;20744;-82
2022/07/16 06:07:56;;;;;;;1.17;1.07;;;14.90;97.30;;;;;;5053283;28;20217;-82
2022/07/16 06:10:22;;;;;;;1.93;1.70;;;15.00;97.30;;;;;;5053268;28;20200;-82
2022/07/16 06:12:48;;;;;;;3.17;1.37;;;15.00;97.30;;;;;;5058087;28;20324;-82
2022/07/16 06:15:13;;;;;;;1.33;1.17;;;15.10;97.30;;;;;;5073197;28;20994;-83
2022/07/16 06:17:40;;;;;;;1.43;1.33;;;15.10;97.30;;;;;;5072815;28;20464;-83
2022/07/16 06:20:06;;;;;;;1.27;1.00;;;15.20;97.30;;;;;;5073031;28;20189;-82
2022/07/16 06:22:33;;;;;;;2.43;1.13;;;15.20;97.30;;;;;;5072646;28;20421;-82
2022/07/16 06:24:59;;;;;;;1.60;1.50;;;15.30;97.30;;;;;;5073087;28;20449;-83
2022/07/16 06:27:25;;;;;;;0.90;0.80;;;15.30;97.20;;;;;;5072463;28;20409;-82
2022/07/16 06:29:50;;;;;;;7.50;2.73;;;15.40;97.20;;;;;;5072415;28;20487;-82
2022/07/16 06:32:16;;;;;;;1.20;1.10;;;15.40;96.40;;;;;;5072285;28;20618;-83
2022/07/16 06:34:41;;;;;;;1.00;0.90;;;15.50;96.50;;;;;;5072551;28;20586;-82
2022/07/16 06:37:07;;;;;;;1.10;1.00;;;15.50;95.80;;;;;;5067015;28;20191;-83
2022/07/16 06:39:32;;;;;;;12.43;1.30;;;15.60;96.40;;;;;;5052806;28;20744;-83
2022/07/16 06:41:59;;;;;;;1.10;1.00;;;15.70;95.90;;;;;;5052266;28;20183;-83
2022/07/16 06:44:24;;;;;;;1.47;1.37;;;15.70;95.30;;;;;;5052815;28;20223;-82
2022/07/16 06:46:50;;;;;;;5.43;2.00;;;15.80;95.00;;;;;;5071430;28;20452;-82
2022/07/16 06:49:16;;;;;;;1.23;1.17;;;15.90;95.00;;;;;;5073366;28;20214;-83
2022/07/16 06:51:41;;;;;;;1.00;0.90;;;15.90;94.40;;;;;;5072514;28;20551;-83
2022/07/16 06:54:07;;;;;;;1.00;0.90;;;16.00;93.50;;;;;;5071870;28;20189;-82
2022/07/16 06:56:33;;;;;;;2.93;2.00;;;16.00;93.60;;;;;;5071971;28;20206;-83
2022/07/16 06:58:58;;;;;;;1.37;1.30;;;16.10;93.50;;;;;;5071892;28;20198;-83
2022/07/16 07:01:24;;;;;;;0.97;0.93;;;16.10;93.20;;;;;;5071458;28;20279;-82
2022/07/16 07:03:50;;;;;;;1.27;1.17;;;16.20;93.30;;;;;;5071941;28;20179;-82
2022/07/16 07:06:16;;;;;;;1.43;1.33;;;16.20;93.20;;;;;;5071617;28;20575;-82
2022/07/16 07:08:41;;;;;;;1.00;0.90;;;16.30;93.00;;;;;;5071804;28;20433;-83
2022/07/16 07:11:07;;;;;;;1.40;1.40;;;16.40;92.90;;;;;;5067435;28;20203;-82
2022/07/16 07:13:33;;;;;;;1.67;1.20;;;16.50;93.30;;;;;;5051732;28;20172;-83
2022/07/16 07:15:59;;;;;;;1.33;1.27;;;16.60;93.00;;;;;;5051983;28;20484;-83
2022/07/16 07:18:25;;;;;;;1.60;1.30;;;16.60;93.10;;;;;;5051154;28;20749;-83
2022/07/16 07:20:50;;;;;;;2.10;1.40;;;16.70;92.70;;;;;;5069287;28;20179;-82
2022/07/16 07:23:16;;;;;;;3.27;1.97;;;16.80;92.80;;;;;;5071488;28;20809;-82
2022/07/16 07:25:41;;;;;;;1.60;1.00;;;16.80;92.40;;;;;;5071633;28;20171;-82
2022/07/16 07:28:07;;;;;;;1.00;0.90;;;16.90;91.90;;;;;;5071265;28;20205;-83
2022/07/16 07:30:33;;;;;;;0.97;0.93;;;16.90;91.30;;;;;;5071381;28;20203;-82
2022/07/16 07:33:01;;;;;;;1.63;1.60;;;17.00;91.30;;;;;;5058391;28;20665;-82
2022/07/16 07:35:27;;;;;;;1.40;1.30;;;17.00;90.70;;;;;;5058771;28;20282;-82
2022/07/16 07:37:53;;;;;;;5.23;1.80;;;17.10;90.70;;;;;;5072620;28;20850;-82
2022/07/16 07:40:19;;;;;;;2.97;1.10;;;17.20;90.40;;;;;;5070641;28;20414;-83
2022/07/16 07:42:44;;;;;;;1.80;1.70;;;17.30;90.10;;;;;;5057035;28;20184;-82
2022/07/16 07:45:11;;;;;;;1.10;1.10;;;17.40;90.20;;;;;;5051094;28;20330;-82
2022/07/16 07:47:37;;;;;;;1.00;1.00;;;17.50;89.80;;;;;;5051168;28;20288;-83
2022/07/16 07:50:04;;;;;;;1.00;0.90;;;17.60;89.40;;;;;;5050799;28;20461;-83
2022/07/16 07:52:30;;;;;;;1.17;1.07;;;17.70;89.40;;;;;;5050853;28;20457;-82
2022/07/16 07:54:56;;;;;;;1.03;0.93;;;17.80;89.20;;;;;;5055296;28;20444;-83
2022/07/16 07:57:22;;;;;;;1.43;1.33;;;17.80;89.20;;;;;;5070822;28;20418;-83
2022/07/16 07:59:47;;;;;;;0.90;0.80;;;17.90;88.90;;;;;;5071507;28;20175;-82
2022/07/16 08:02:13;;;;;;;1.33;1.00;;;17.90;88.80;;;;;;5071714;28;20171;-82
2022/07/16 08:04:38;;;;;;;1.67;1.57;;;17.90;89.10;;;;;;5071166;28;20665;-82
2022/07/16 08:07:04;;;;;;;1.20;1.10;;;17.90;89.10;;;;;;5071038;28;20608;-82
2022/07/16 08:09:30;;;;;;;1.43;1.40;;;17.90;88.70;;;;;;5052515;28;20214;-83
2022/07/16 08:11:56;;;;;;;1.50;1.43;;;18.00;88.60;;;;;;5050720;28;20417;-82
2022/07/16 08:14:21;;;;;;;1.10;1.00;;;18.00;88.40;;;;;;5050566;28;20198;-81
2022/07/16 08:16:47;;;;;;;4.77;1.47;;;18.00;87.90;;;;;;5061147;28;20183;-82
2022/07/16 08:19:12;;;;;;;1.50;1.40;;;18.00;87.80;;;;;;5065292;28;20673;-82
2022/07/16 08:21:38;;;;;;;1.57;1.37;;;18.00;88.00;;;;;;5050624;28;20182;-82
2022/07/16 08:26:48;;;;;;;1.33;1.23;;;18.00;88.20;;;;;;5066166;28;20455;-82
2022/07/16 08:29:14;;;;;;;1.60;1.30;;;18.00;87.90;;;;;;5070880;28;20469;-82
2022/07/16 08:31:40;;;;;;;0.93;0.87;;;18.00;88.20;;;;;;5069595;28;20282;-82
2022/07/16 08:34:05;;;;;;;1.43;1.40;;;18.10;90.10;;;;;;5070554;28;20462;-82
2022/07/16 08:36:32;;;;;;;2.50;1.60;;;18.10;90.60;;;;;;5070193;28;20233;-81
2022/07/16 08:38:57;;;;;;;1.47;1.37;;;18.10;91.40;;;;;;5071478;28;20556;-81
2022/07/16 08:41:24;;;;;;;1.57;1.30;;;18.00;92.00;;;;;;5070089;28;20462;-82
2022/07/16 08:43:50;;;;;;;1.73;1.40;;;17.90;92.50;;;;;;5070130;28;20178;-83
2022/07/16 08:46:22;;;;;;;1.87;1.50;;;17.80;92.60;;;;;;5070362;28;20590;-82
2022/07/16 08:48:52;;;;;;;1.30;1.20;;;17.70;94.70;;;;;;5058196;28;20497;-81
2022/07/16 08:51:30;;;;;;;1.10;1.00;;;17.50;95.30;;;;;;5069734;28;20479;-82
2022/07/16 08:53:58;;;;;;;1.87;1.40;;;17.40;96.10;;;;;;5071423;28;20398;-82
2022/07/16 08:56:26;;;;;;;1.07;0.97;;;17.20;97.00;;;;;;5069367;28;20417;-81
2022/07/16 08:58:52;;;;;;;1.57;1.47;;;17.20;97.30;;;;;;5068918;28;20441;-82
2022/07/16 09:01:18;;;;;;;1.63;1.53;;;17.20;97.30;;;;;;5058490;28;20780;-83
2022/07/16 09:03:43;;;;;;;1.27;1.27;;;17.20;97.30;;;;;;5066265;28;20283;-82
2022/07/16 09:06:09;;;;;;;1.70;1.60;;;17.10;97.30;;;;;;5069552;28;20178;-82
2022/07/16 09:08:34;;;;;;;1.63;1.53;;;17.10;97.30;;;;;;5055955;28;20206;-83
2022/07/16 09:11:20;;;;;;;1.40;1.30;;;17.10;97.30;;;;;;5070347;28;20302;-82
2022/07/16 09:14:02;;;;;;;1.57;1.30;;;17.00;97.30;;;;;;5069176;28;20273;-82
2022/07/16 09:16:52;;;;;;;1.07;0.97;;;17.10;97.30;;;;;;5069464;28;20418;-84
2022/07/16 09:19:23;;;;;;;1.30;1.20;;;17.00;97.30;;;;;;5061869;28;20473;-82
2022/07/16 09:22:10;;;;;;;1.67;1.13;;;17.00;97.30;;;;;;5064251;28;20620;-82
2022/07/16 09:24:44;;;;;;;1.00;0.90;;;17.00;97.30;;;;;;5069231;28;20496;-83
2022/07/16 09:27:22;;;;;;;1.97;1.10;;;17.00;97.30;;;;;;5065672;28;20711;-83
2022/07/16 09:29:48;;;;;;;1.83;1.63;;;17.10;97.30;;;;;;5049177;28;20581;-82
2022/07/16 09:32:34;;;;;;;1.10;1.00;;;17.10;97.30;;;;;;5056824;28;20870;-83
2022/07/16 09:35:02;;;;;;;1.90;1.30;;;17.20;97.30;;;;;;5065710;28;20332;-83
2022/07/16 09:37:52;;;;;;;1.77;1.20;;;17.20;97.30;;;;;;5059551;28;20540;-82
2022/07/16 09:40:45;;;;;;;1.10;1.10;;;17.30;97.30;;;;;;5066863;28;20444;-82
2022/07/16 09:43:13;;;;;;;2.60;1.27;;;17.40;97.30;;;;;;5066005;28;20425;-82
2022/07/16 09:45:40;;;;;;;4.03;3.10;;;17.50;97.30;;;;;;5049809;28;20422;-82
2022/07/16 09:48:36;;;;;;;2.23;1.70;;;17.70;97.30;;;;;;5049379;28;20481;-82
2022/07/16 09:51:16;;;;;;;1.27;1.17;;;17.90;97.30;;;;;;5049209;28;20882;-81
2022/07/16 09:53:43;;;;;;;2.23;1.90;;;18.10;96.20;;;;;;5062578;28;20848;-84
2022/07/16 09:56:16;;;;;;;1.47;1.40;;;18.30;94.80;;;;;;5068944;28;20475;-83
2022/07/16 09:58:51;;;;;;;1.57;1.30;;;18.30;95.00;;;;;;5069071;28;20491;-83
2022/07/16 10:01:17;;;;;;;1.30;1.30;;;18.40;94.40;;;;;;5069053;28;20421;-83
2022/07/16 10:03:45;;;;;;;2.10;1.00;;;18.60;93.70;;;;;;5069141;28;20862;-82
2022/07/16 10:06:11;;;;;;;0.83;0.77;;;18.60;93.70;;;;;;5069135;28;20428;-82
2022/07/16 10:08:38;;;;;;;1.33;1.23;;;18.70;93.60;;;;;;5068972;28;20448;-83
2022/07/16 10:11:04;;;;;;;1.10;1.00;;;18.80;93.40;;;;;;5068994;28;20974;-86
2022/07/16 10:13:32;;;;;;;2.00;0.87;;;18.80;93.00;;;;;;5068604;28;20423;-85
2022/07/16 10:15:58;;;;;;;1.03;1.03;;;18.80;93.00;;;;;;5064229;28;20237;-85
2022/07/16 10:18:34;;;;;;;0.90;0.80;;;18.90;92.80;;;;;;5060944;28;20484;-85
2022/07/16 10:21:09;;;;;;;0.90;0.80;;;19.10;90.90;;;;;;5068494;28;20582;-85
2022/07/16 10:23:36;;;;;;;1.40;1.27;;;19.10;89.80;;;;;;5068424;28;20421;-84
2022/07/16 10:26:19;;;;;;;0.90;0.90;;;19.20;88.40;;;;;;5068941;28;20479;-86
2022/07/16 10:28:56;;;;;;;0.90;0.80;;;19.30;86.20;;;;;;5069228;28;20497;-84
2022/07/16 10:31:34;;;;;;;1.90;1.53;;;19.40;86.10;;;;;;5068958;28;20805;-86
2022/07/16 10:34:15;;;;;;;1.23;1.13;;;19.60;86.30;;;;;;5068587;28;20519;-85
2022/07/16 10:36:59;;;;;;;0.80;0.80;;;19.70;85.70;;;;;;5070056;28;20475;-86
2022/07/16 10:39:26;;;;;;;1.10;1.00;;;19.70;84.90;;;;;;5068033;28;20441;-86
2022/07/16 10:42:00;;;;;;;1.07;1.03;;;19.80;85.80;;;;;;5055321;28;20418;-85
2022/07/16 10:44:45;;;;;;;1.00;0.90;;;19.90;85.70;;;;;;5056131;28;20416;-86
2022/07/16 10:47:11;;;;;;;0.90;0.90;;;20.10;85.30;;;;;;5068565;28;20602;-84
2022/07/16 10:49:37;;;;;;;1.20;1.10;;;20.20;84.10;;;;;;5067513;28;20534;-85
2022/07/16 10:52:08;;;;;;;1.57;0.90;;;20.10;85.20;;;;;;5068389;28;20414;-86
2022/07/16 10:54:39;;;;;;;1.00;0.90;;;20.10;85.50;;;;;;5061242;28;20208;-86
2022/07/16 10:57:09;;;;;;;2.40;0.90;;;20.00;84.80;;;;;;5072090;28;20428;-84
2022/07/16 10:59:37;;;;;;;1.10;1.00;;;20.00;83.30;;;;;;5071885;28;20832;-85
2022/07/16 11:02:06;;;;;;;1.17;1.10;;;20.00;81.90;;;;;;5056676;28;20509;-85
2022/07/16 11:04:36;;;;;;;0.80;0.70;;;20.10;81.60;;;;;;5061437;28;20424;-85
2022/07/16 11:07:13;;;;;;;1.20;1.13;;;20.20;80.50;;;;;;5060336;28;20625;-86
2022/07/16 11:09:41;;;;;;;1.77;0.90;;;20.50;81.70;;;;;;5071920;28;20461;-84
2022/07/16 11:12:11;;;;;;;1.00;0.90;;;20.80;80.90;;;;;;5066355;28;20414;-85
2022/07/16 11:14:38;;;;;;;1.53;1.17;;;21.00;78.70;;;;;;5064481;28;20410;-85
2022/07/16 11:17:04;;;;;;;1.03;0.93;;;21.20;76.70;;;;;;5073374;28;20471;-86
2022/07/16 11:19:33;;;;;;;3.83;1.97;;;21.40;77.20;;;;;;5059297;28;20886;-86
2022/07/16 11:22:01;;;;;;;0.80;0.80;;;21.50;76.90;;;;;;5071842;28;21010;-84
2022/07/16 11:24:28;;;;;;;2.03;1.00;;;21.60;76.10;;;;;;5070816;28;20421;-86
2022/07/16 11:26:55;;;;;;;0.77;0.73;;;21.70;76.80;;;;;;5051386;28;20472;-86
2022/07/16 11:29:24;;;;;;;1.10;1.00;;;21.60;75.80;;;;;;5066886;28;20552;-86
2022/07/16 11:31:51;;;;;;;1.37;1.07;;;21.60;76.10;;;;;;5071446;28;20443;-86
2022/07/16 11:34:22;;;;;;;1.30;1.20;;;21.60;76.00;;;;;;5070787;28;20950;-85
2022/07/16 11:36:51;;;;;;;1.27;1.17;;;21.60;76.10;;;;;;5071465;28;20417;-86
2022/07/16 11:39:22;;;;;;;1.13;0.90;;;21.70;75.50;;;;;;5072517;28;20460;-84
2022/07/16 11:41:50;;;;;;;1.30;1.13;;;21.90;74.90;;;;;;5071314;28;20514;-86
2022/07/16 11:44:22;;;;;;;1.13;1.03;;;22.00;74.30;;;;;;5071237;28;20413;-85
2022/07/16 11:46:57;;;;;;;1.47;1.33;;;21.90;75.10;;;;;;5070970;28;20409;-87
2022/07/16 11:49:31;;;;;;;0.90;0.80;;;21.90;75.00;;;;;;5058845;28;20436;-83
2022/07/16 11:52:02;;;;;;;1.73;1.57;;;21.90;75.80;;;;;;5068915;28;20464;-85
2022/07/16 11:54:29;;;;;;;1.30;1.20;;;21.90;74.70;;;;;;5060488;28;20413;-85
2022/07/16 11:56:56;;;;;;;1.10;1.00;;;21.90;74.70;;;;;;5070706;28;20465;-86
2022/07/16 11:59:31;;;;;;;1.37;1.30;;;21.90;75.50;;;;;;5070918;28;20465;-86
2022/07/16 12:02:07;;;;;;;1.10;1.00;;;22.10;74.90;;;;;;5070809;28;20925;-86
2022/07/16 12:04:38;;;;;;;2.60;1.20;;;22.10;73.90;;;;;;5070150;28;20413;-85
2022/07/16 12:07:10;;;;;;;1.00;0.90;;;22.00;73.60;;;;;;5059389;28;20416;-84
2022/07/16 12:09:39;;;;;;;1.00;0.90;;;21.90;74.20;;;;;;5065783;28;20461;-86
2022/07/16 12:12:07;;;;;;;1.20;1.10;;;21.80;74.00;;;;;;5062314;28;20696;-85
2022/07/16 12:14:55;;;;;;;1.30;1.20;;;21.70;75.00;;;;;;5053400;28;20422;-86
2022/07/16 12:17:31;;;;;;;1.00;0.90;;;21.70;78.50;;;;;;5070996;28;20478;-85
2022/07/16 12:20:24;;;;;;;1.10;1.10;;;21.60;80.80;;;;;;5057490;28;20832;-84
2022/07/16 12:23:10;;;;;;;0.90;0.80;;;21.70;81.20;;;;;;5070378;28;20413;-84
2022/07/16 12:25:45;;;;;;;1.23;1.13;;;21.70;81.50;;;;;;5069989;28;20429;-85
2022/07/16 12:28:20;;;;;;;1.97;1.23;;;21.90;81.90;;;;;;5057808;28;20515;-85
2022/07/16 12:30:49;;;;;;;1.97;1.43;;;22.00;83.00;;;;;;5069880;28;21019;-85
2022/07/16 12:33:21;;;;;;;1.43;1.37;;;22.20;83.00;;;;;;5069728;28;20802;-84
2022/07/16 12:35:51;;;;;;;1.33;1.23;;;22.40;81.60;;;;;;5057009;28;20417;-85
2022/07/16 12:38:55;;;;;;;1.13;1.07;;;22.50;80.80;;;;;;5069580;28;20433;-85
2022/07/16 12:41:25;;;;;;;1.30;1.20;;;22.60;81.90;;;;;;5059851;28;20977;-85
2022/07/16 12:44:00;;;;;;;1.00;0.90;;;22.70;80.80;;;;;;5069565;28;20449;-85
2022/07/16 12:46:48;;;;;;;1.57;1.27;;;22.70;79.60;;;;;;5070174;28;20965;-85
2022/07/16 12:49:16;;;;;;;1.90;1.63;;;22.80;79.40;;;;;;5069985;28;20448;-85
2022/07/16 12:52:00;;;;;;;1.30;1.10;;;22.70;78.80;;;;;;5069587;28;20468;-83
2022/07/16 12:54:25;;;;;;;1.40;1.30;;;22.50;78.10;;;;;;5069599;28;20839;-85
2022/07/16 12:59:35;;;;;;;1.53;1.47;;;22.70;78.00;;;;;;5058462;28;20588;-87